createdAt,value
2018-07-30T00:00:28.670Z,0
2018-07-30T00:01:43.142Z,0
2018-07-30T00:02:56.851Z,0
2018-07-30T00:04:11.284Z,0
2018-07-30T00:05:26.183Z,0
2018-07-30T00:06:41.291Z,0
2018-07-30T00:07:56.692Z,0
2018-07-30T00:09:11.628Z,0
2018-07-30T00:10:26.585Z,0
2018-07-30T00:11:40.787Z,0
2018-07-30T00:12:55.418Z,0
2018-07-30T00:14:10.216Z,0
2018-07-30T00:15:24.395Z,0
2018-07-30T00:16:38.849Z,0
2018-07-30T00:17:52.792Z,0
2018-07-30T00:19:07.222Z,0
2018-07-30T00:20:21.942Z,0
2018-07-30T00:21:35.623Z,0
2018-07-30T00:22:49.850Z,0
2018-07-30T00:24:04.041Z,0
2018-07-30T00:25:18.981Z,0
2018-07-30T00:26:33.647Z,0
2018-07-30T00:27:48.178Z,0
2018-07-30T00:29:02.432Z,0
2018-07-30T00:30:17.050Z,0
2018-07-30T00:31:32.072Z,0
2018-07-30T00:32:46.865Z,0
2018-07-30T00:34:01.512Z,0
2018-07-30T00:35:16.481Z,0
2018-07-30T00:36:31.183Z,0
2018-07-30T00:37:45.860Z,0
2018-07-30T00:39:00.648Z,0
2018-07-30T00:40:14.594Z,0
2018-07-30T00:41:29.025Z,0
2018-07-30T00:42:43.474Z,0
2018-07-30T00:43:57.694Z,0
2018-07-30T00:45:12.904Z,0
2018-07-30T00:46:27.848Z,0
2018-07-30T00:47:42.026Z,0
2018-07-30T00:48:56.987Z,0
2018-07-30T00:50:11.663Z,0
2018-07-30T00:51:26.629Z,0
2018-07-30T00:52:41.048Z,0
2018-07-30T00:53:55.467Z,0
2018-07-30T00:55:10.079Z,0
2018-07-30T00:56:24.508Z,0
2018-07-30T00:57:39.253Z,0
2018-07-30T00:58:54.152Z,0
2018-07-30T01:00:08.645Z,0
2018-07-30T01:01:23.336Z,0
2018-07-30T01:02:37.797Z,0
2018-07-30T01:03:52.021Z,0
2018-07-30T01:05:06.728Z,0
2018-07-30T01:06:21.422Z,0
2018-07-30T01:07:35.128Z,0
2018-07-30T01:08:49.426Z,0
2018-07-30T01:10:04.536Z,0
2018-07-30T01:11:18.739Z,0
2018-07-30T01:12:33.462Z,0
2018-07-30T01:13:48.187Z,0
2018-07-30T01:15:02.437Z,0
2018-07-30T01:16:17.661Z,0
2018-07-30T01:17:32.136Z,0
2018-07-30T01:18:46.603Z,0
2018-07-30T01:20:01.048Z,0
2018-07-30T01:21:15.742Z,0
2018-07-30T01:22:30.725Z,0
2018-07-30T01:23:44.927Z,0
2018-07-30T01:24:59.622Z,0
2018-07-30T01:26:14.215Z,0
2018-07-30T01:27:28.636Z,0
2018-07-30T01:28:43.093Z,0
2018-07-30T01:29:56.793Z,0
2018-07-30T01:31:11.554Z,0
2018-07-30T01:32:26.755Z,0
2018-07-30T01:33:41.184Z,0
2018-07-30T01:34:55.690Z,0
2018-07-30T01:36:09.925Z,0
2018-07-30T01:37:24.609Z,0
2018-07-30T01:38:38.789Z,0
2018-07-30T01:39:53.480Z,0
2018-07-30T01:41:08.710Z,0
2018-07-30T01:42:23.649Z,0
2018-07-30T01:43:38.319Z,0
2018-07-30T01:44:52.511Z,0
2018-07-30T01:46:06.740Z,0
2018-07-30T01:47:21.207Z,0
2018-07-30T01:48:36.139Z,0
2018-07-30T01:49:50.540Z,0
2018-07-30T01:51:05.380Z,0
2018-07-30T01:52:19.815Z,0
2018-07-30T01:53:34.808Z,0
2018-07-30T01:54:49.475Z,0
2018-07-30T01:56:03.683Z,0
2018-07-30T01:57:18.097Z,0
2018-07-30T01:58:32.276Z,0
2018-07-30T01:59:47.244Z,0
2018-07-30T02:01:01.190Z,0
2018-07-30T02:02:14.923Z,0
2018-07-30T02:03:29.072Z,0
2018-07-30T02:04:43.536Z,0
2018-07-30T02:05:58.390Z,0
2018-07-30T02:07:13.153Z,0
2018-07-30T02:08:27.556Z,0
2018-07-30T02:09:42.505Z,0
2018-07-30T02:10:56.417Z,0
2018-07-30T02:12:10.933Z,0
2018-07-30T02:13:25.378Z,0
2018-07-30T02:14:39.603Z,0
2018-07-30T02:15:53.540Z,0
2018-07-30T02:17:08.042Z,0
2018-07-30T02:18:22.497Z,0
2018-07-30T02:19:36.923Z,0
2018-07-30T02:20:51.230Z,0
2018-07-30T02:22:06.178Z,0
2018-07-30T02:23:20.880Z,0
2018-07-30T02:24:35.068Z,0
2018-07-30T02:25:49.233Z,0
2018-07-30T02:27:04.261Z,0
2018-07-30T02:28:18.173Z,0
2018-07-30T02:29:32.366Z,0
2018-07-30T02:30:47.606Z,0
2018-07-30T02:32:02.282Z,0
2018-07-30T02:33:16.690Z,0
2018-07-30T02:34:31.139Z,0
2018-07-30T02:35:45.542Z,0
2018-07-30T02:37:00.520Z,0
2018-07-30T02:38:15.109Z,0
2018-07-30T02:39:29.923Z,0
2018-07-30T02:40:44.641Z,0
2018-07-30T02:41:59.310Z,0
2018-07-30T02:43:13.654Z,0
2018-07-30T02:44:28.322Z,0
2018-07-30T02:45:42.280Z,0
2018-07-30T02:46:56.489Z,0
2018-07-30T02:48:11.082Z,0
2018-07-30T02:49:25.582Z,0
2018-07-30T02:50:40.268Z,0
2018-07-30T02:51:54.742Z,0
2018-07-30T02:53:09.484Z,0
2018-07-30T02:54:24.430Z,0
2018-07-30T02:55:39.392Z,0
2018-07-30T02:56:53.871Z,0
2018-07-30T02:58:34.313Z,0
2018-07-30T02:59:48.766Z,0
2018-07-30T03:01:03.744Z,0
2018-07-30T03:02:18.431Z,0
2018-07-30T03:03:33.548Z,0
2018-07-30T03:04:48.189Z,0
2018-07-30T03:06:03.128Z,0
2018-07-30T03:07:17.823Z,0
2018-07-30T03:08:32.133Z,0
2018-07-30T03:09:46.353Z,0
2018-07-30T03:11:00.775Z,0
2018-07-30T03:12:15.624Z,0
2018-07-30T03:13:30.056Z,4
2018-07-30T03:14:44.765Z,4
2018-07-30T03:15:59.472Z,0
2018-07-30T03:17:13.656Z,4
2018-07-30T03:18:28.588Z,0
2018-07-30T03:19:43.879Z,4
2018-07-30T03:20:58.831Z,4
2018-07-30T03:22:13.550Z,4
2018-07-30T03:23:27.965Z,8
2018-07-30T03:24:43.005Z,8
2018-07-30T03:25:57.544Z,12
2018-07-30T03:27:11.728Z,12
2018-07-30T03:28:26.653Z,16
2018-07-30T03:29:41.691Z,20
2018-07-30T03:30:56.363Z,24
2018-07-30T03:32:11.365Z,24
2018-07-30T03:33:25.823Z,32
2018-07-30T03:34:40.513Z,36
2018-07-30T03:35:55.220Z,40
2018-07-30T03:37:09.506Z,48
2018-07-30T03:38:24.208Z,56
2018-07-30T03:39:39.126Z,60
2018-07-30T03:40:53.816Z,72
2018-07-30T03:42:08.524Z,84
2018-07-30T03:43:23.033Z,92
2018-07-30T03:44:38.560Z,104
2018-07-30T03:45:53.590Z,116
2018-07-30T03:47:07.798Z,128
2018-07-30T03:48:22.317Z,144
2018-07-30T03:49:37.058Z,156
2018-07-30T03:50:53.535Z,176
2018-07-30T03:52:08.241Z,192
2018-07-30T03:53:22.926Z,208
2018-07-30T03:54:36.886Z,232
2018-07-30T03:55:51.366Z,256
2018-07-30T03:57:06.089Z,276
2018-07-30T03:58:20.022Z,300
2018-07-30T03:59:33.916Z,328
2018-07-30T04:00:48.713Z,352
2018-07-30T04:02:03.153Z,384
2018-07-30T04:03:17.596Z,412
2018-07-30T04:04:32.291Z,448
2018-07-30T04:05:46.567Z,476
2018-07-30T04:07:01.611Z,504
2018-07-30T04:08:16.574Z,548
2018-07-30T04:09:31.589Z,588
2018-07-30T04:10:46.826Z,632
2018-07-30T04:12:01.003Z,692
2018-07-30T04:13:15.969Z,752
2018-07-30T04:14:29.971Z,892
2018-07-30T04:15:45.209Z,1104
2018-07-30T04:17:00.069Z,1276
2018-07-30T04:18:14.547Z,1420
2018-07-30T04:19:29.224Z,1504
2018-07-30T04:20:43.990Z,1632
2018-07-30T04:21:58.728Z,1816
2018-07-30T04:23:13.526Z,1888
2018-07-30T04:24:28.206Z,1964
2018-07-30T04:25:42.382Z,1744
2018-07-30T04:26:57.086Z,1460
2018-07-30T04:28:11.608Z,1588
2018-07-30T04:29:26.033Z,2080
2018-07-30T04:30:41.262Z,2492
2018-07-30T04:31:55.685Z,2732
2018-07-30T04:33:10.436Z,2900
2018-07-30T04:34:24.674Z,3036
2018-07-30T04:35:39.145Z,3100
2018-07-30T04:36:52.865Z,2948
2018-07-30T04:38:07.542Z,2992
2018-07-30T04:39:21.290Z,3300
2018-07-30T04:40:36.020Z,3476
2018-07-30T04:41:50.587Z,3668
2018-07-30T04:43:05.018Z,3876
2018-07-30T04:44:19.204Z,4000
2018-07-30T04:45:34.160Z,4060
2018-07-30T04:46:49.182Z,4176
2018-07-30T04:48:03.855Z,4288
2018-07-30T04:49:18.389Z,4372
2018-07-30T04:50:33.412Z,4456
2018-07-30T04:51:48.463Z,4528
2018-07-30T04:53:03.478Z,4668
2018-07-30T04:54:17.681Z,4804
2018-07-30T04:55:32.525Z,4936
2018-07-30T04:56:47.616Z,5108
2018-07-30T04:58:02.140Z,5232
2018-07-30T04:59:16.907Z,5384
2018-07-30T05:00:30.847Z,5588
2018-07-30T05:01:45.046Z,5752
2018-07-30T05:02:59.875Z,5880
2018-07-30T05:04:14.327Z,5992
2018-07-30T05:05:29.074Z,6120
2018-07-30T05:06:43.561Z,6264
2018-07-30T05:07:57.809Z,6408
2018-07-30T05:09:12.067Z,6620
2018-07-30T05:10:26.532Z,8416
2018-07-30T05:11:41.305Z,11336
2018-07-30T05:12:55.700Z,12740
2018-07-30T05:14:10.695Z,12976
2018-07-30T05:15:25.385Z,14240
2018-07-30T05:16:40.121Z,15872
2018-07-30T05:17:55.593Z,14976
2018-07-30T05:19:10.384Z,14336
2018-07-30T05:20:25.110Z,14560
2018-07-30T05:21:39.305Z,13504
2018-07-30T05:22:54.089Z,14752
2018-07-30T05:24:08.629Z,14592
2018-07-30T05:25:23.428Z,14592
2018-07-30T05:26:38.284Z,13188
2018-07-30T05:27:52.665Z,8936
2018-07-30T05:29:06.896Z,4840
2018-07-30T05:30:21.688Z,3728
2018-07-30T05:31:36.641Z,3696
2018-07-30T05:32:51.342Z,3648
2018-07-30T05:34:05.798Z,3636
2018-07-30T05:35:20.540Z,3604
2018-07-30T05:36:35.434Z,3572
2018-07-30T05:37:49.983Z,3536
2018-07-30T05:39:04.415Z,3528
2018-07-30T05:40:19.500Z,3504
2018-07-30T05:41:34.181Z,3512
2018-07-30T05:42:49.643Z,3508
2018-07-30T05:44:04.517Z,3532
2018-07-30T05:45:18.766Z,3524
2018-07-30T05:46:33.252Z,3504
2018-07-30T05:47:48.009Z,3468
2018-07-30T05:49:02.920Z,3456
2018-07-30T05:50:17.678Z,3428
2018-07-30T05:51:31.840Z,3408
2018-07-30T05:52:46.540Z,3380
2018-07-30T05:54:01.024Z,3360
2018-07-30T05:55:15.403Z,3320
2018-07-30T05:56:29.887Z,3308
2018-07-30T05:57:44.821Z,3304
2018-07-30T05:58:59.482Z,3316
2018-07-30T06:00:13.922Z,3320
2018-07-30T06:01:28.911Z,3320
2018-07-30T06:02:43.363Z,3308
2018-07-30T06:03:58.041Z,3300
2018-07-30T06:05:12.216Z,3284
2018-07-30T06:06:26.119Z,3272
2018-07-30T06:07:41.364Z,3252
2018-07-30T06:08:55.662Z,3244
2018-07-30T06:10:10.121Z,3236
2018-07-30T06:11:24.952Z,3228
2018-07-30T06:12:39.462Z,3216
2018-07-30T06:13:54.190Z,3204
2018-07-30T06:15:08.902Z,3188
2018-07-30T06:16:23.074Z,3172
2018-07-30T06:17:37.780Z,3144
2018-07-30T06:18:52.003Z,3112
2018-07-30T06:20:06.719Z,3076
2018-07-30T06:23:54.332Z,3040
2018-07-30T06:25:08.793Z,3048
2018-07-30T06:26:23.178Z,3056
2018-07-30T06:27:38.139Z,3068
2018-07-30T06:28:52.872Z,3072
2018-07-30T06:30:07.789Z,3080
2018-07-30T06:31:22.550Z,3088
2018-07-30T06:32:37.243Z,3100
2018-07-30T06:33:51.717Z,3116
2018-07-30T06:35:06.219Z,3128
2018-07-30T06:36:20.421Z,3128
2018-07-30T06:37:34.902Z,3128
2018-07-30T06:38:49.649Z,3128
2018-07-30T06:40:04.582Z,3124
2018-07-30T06:41:19.558Z,3120
2018-07-30T06:42:34.035Z,3124
2018-07-30T06:43:48.542Z,3124
2018-07-30T06:45:03.910Z,3128
2018-07-30T06:46:18.101Z,3136
2018-07-30T06:47:38.835Z,3148
2018-07-30T06:48:53.024Z,3144
2018-07-30T06:50:07.722Z,3144
2018-07-30T06:51:22.740Z,3148
2018-07-30T06:52:37.237Z,3152
2018-07-30T06:53:51.494Z,3160
2018-07-30T06:55:06.050Z,3164
2018-07-30T06:56:20.490Z,3172
2018-07-30T06:57:35.479Z,3168
2018-07-30T06:58:49.676Z,3172
2018-07-30T07:00:04.335Z,3172
2018-07-30T07:01:18.801Z,3176
2018-07-30T07:02:33.477Z,3172
2018-07-30T07:03:47.997Z,3168
2018-07-30T07:05:01.507Z,3164
2018-07-30T07:06:15.957Z,3164
2018-07-30T07:07:30.900Z,3172
2018-07-30T07:08:45.549Z,3172
2018-07-30T07:10:00.316Z,3172
2018-07-30T07:11:14.742Z,3168
2018-07-30T07:12:29.215Z,3168
2018-07-30T07:13:43.204Z,3184
2018-07-30T07:14:58.177Z,3180
2018-07-30T07:16:12.836Z,3180
2018-07-30T07:17:27.050Z,3172
2018-07-30T07:18:41.760Z,3180
2018-07-30T07:23:11.093Z,3128
2018-07-30T07:24:25.535Z,3120
2018-07-30T07:25:40.268Z,3108
2018-07-30T07:26:54.593Z,3076
2018-07-30T07:28:08.895Z,3076
2018-07-30T07:29:23.906Z,3076
2018-07-30T07:30:38.086Z,2968
2018-07-30T07:31:52.677Z,3052
2018-07-30T07:33:07.581Z,3072
2018-07-30T07:34:21.561Z,3068
2018-07-30T07:35:36.544Z,3048
2018-07-30T07:36:51.300Z,3060
2018-07-30T07:38:05.838Z,3064
2018-07-30T07:39:20.580Z,3080
2018-07-30T07:40:35.260Z,3088
2018-07-30T07:41:50.101Z,3080
2018-07-30T07:43:04.934Z,3076
2018-07-30T07:44:19.396Z,3080
2018-07-30T07:45:34.378Z,3076
2018-07-30T07:46:48.862Z,3068
2018-07-30T07:48:03.101Z,3032
2018-07-30T07:49:17.971Z,2968
2018-07-30T07:50:33.252Z,2948
2018-07-30T07:51:48.417Z,2952
2018-07-30T07:53:02.975Z,3024
2018-07-30T07:54:17.864Z,3040
2018-07-30T07:55:32.144Z,3040
2018-07-30T07:56:46.844Z,3032
2018-07-30T07:58:00.831Z,3040
2018-07-30T07:59:15.311Z,3032
2018-07-30T08:00:30.152Z,3020
2018-07-30T08:01:44.638Z,3008
2018-07-30T08:02:58.373Z,2996
2018-07-30T08:04:13.026Z,2988
2018-07-30T08:05:27.322Z,2980
2018-07-30T08:06:41.993Z,2968
2018-07-30T08:07:56.521Z,2948
2018-07-30T08:09:10.610Z,2936
2018-07-30T08:10:25.090Z,2920
2018-07-30T08:11:39.497Z,2912
2018-07-30T08:12:54.562Z,2904
2018-07-30T08:14:09.273Z,2892
2018-07-30T08:15:24.010Z,2880
2018-07-30T08:16:38.626Z,2872
2018-07-30T08:17:53.041Z,2868
2018-07-30T08:19:07.607Z,2868
2018-07-30T08:20:22.311Z,2860
2018-07-30T08:21:37.112Z,2856
2018-07-30T08:22:51.880Z,2848
2018-07-30T08:24:06.663Z,2836
2018-07-30T08:25:20.917Z,2820
2018-07-30T08:26:35.645Z,2804
2018-07-30T08:27:50.085Z,2796
2018-07-30T08:29:04.767Z,2792
2018-07-30T08:30:20.126Z,2788
2018-07-30T08:31:35.413Z,2780
2018-07-30T08:32:50.410Z,2768
2018-07-30T08:34:04.971Z,2760
2018-07-30T08:35:19.438Z,2752
2018-07-30T08:36:33.692Z,2776
2018-07-30T08:37:47.948Z,2772
2018-07-30T08:39:02.834Z,2764
2018-07-30T08:40:17.502Z,2732
2018-07-30T08:41:31.489Z,2724
2018-07-30T08:42:46.223Z,2712
2018-07-30T08:44:00.968Z,2704
2018-07-30T08:45:15.511Z,2692
2018-07-30T08:46:30.529Z,2684
2018-07-30T08:47:45.552Z,2676
2018-07-30T08:49:00.684Z,2672
2018-07-30T08:50:15.470Z,2664
2018-07-30T08:51:30.247Z,2660
2018-07-30T08:52:45.019Z,2652
2018-07-30T08:53:59.323Z,2652
2018-07-30T08:55:14.519Z,2648
2018-07-30T08:56:30.014Z,2648
2018-07-30T08:57:44.659Z,2644
2018-07-30T08:58:59.397Z,2640
2018-07-30T09:00:14.007Z,2628
2018-07-30T09:01:28.579Z,2624
2018-07-30T09:02:43.550Z,2620
2018-07-30T09:03:58.509Z,2616
2018-07-30T09:05:13.007Z,2608
2018-07-30T09:06:27.488Z,2604
2018-07-30T09:07:42.299Z,2600
2018-07-30T09:08:57.097Z,2604
2018-07-30T09:10:11.054Z,2580
2018-07-30T09:11:25.761Z,2576
2018-07-30T09:12:40.233Z,2568
2018-07-30T09:13:54.744Z,2564
2018-07-30T09:15:09.900Z,2556
2018-07-30T09:16:24.146Z,2552
2018-07-30T09:17:38.098Z,2552
2018-07-30T09:18:53.095Z,2544
2018-07-30T09:20:07.987Z,2536
2018-07-30T09:21:22.502Z,2524
2018-07-30T09:22:36.466Z,2512
2018-07-30T09:23:51.201Z,2508
2018-07-30T09:25:05.629Z,2496
2018-07-30T09:26:19.917Z,2496
2018-07-30T09:27:34.227Z,2488
2018-07-30T09:28:48.930Z,2488
2018-07-30T09:30:03.414Z,2480
2018-07-30T09:31:17.703Z,2496
2018-07-30T09:32:31.884Z,2532
2018-07-30T09:33:47.230Z,2564
2018-07-30T09:35:01.676Z,2532
2018-07-30T09:36:16.166Z,2476
2018-07-30T09:37:30.410Z,2448
2018-07-30T09:38:45.034Z,2436
2018-07-30T09:40:00.144Z,2428
2018-07-30T09:41:14.567Z,2440
2018-07-30T09:42:29.298Z,2464
2018-07-30T09:43:43.757Z,2500
2018-07-30T09:44:58.741Z,2544
2018-07-30T09:46:14.315Z,2632
2018-07-30T09:47:28.768Z,2764
2018-07-30T09:48:43.302Z,2900
2018-07-30T09:49:57.804Z,3192
2018-07-30T09:51:12.807Z,3636
2018-07-30T09:52:27.381Z,4060
2018-07-30T09:53:42.394Z,4272
2018-07-30T09:55:09.908Z,4688
2018-07-30T09:56:24.819Z,4648
2018-07-30T09:57:40.176Z,4704
2018-07-30T09:58:54.417Z,4268
2018-07-30T10:00:08.882Z,3904
2018-07-30T10:01:23.691Z,3580
2018-07-30T10:02:38.140Z,3332
2018-07-30T10:03:52.930Z,3100
2018-07-30T10:05:07.420Z,2940
2018-07-30T10:06:22.033Z,2848
2018-07-30T10:07:36.947Z,2800
2018-07-30T10:08:51.405Z,2792
2018-07-30T10:10:06.678Z,2736
2018-07-30T10:11:21.088Z,2664
2018-07-30T10:12:35.305Z,2588
2018-07-30T10:13:49.262Z,2512
2018-07-30T10:15:03.495Z,2448
2018-07-30T10:16:17.981Z,2388
2018-07-30T10:17:33.282Z,2332
2018-07-30T10:18:48.408Z,2288
2018-07-30T10:20:02.902Z,2260
2018-07-30T10:21:18.001Z,2252
2018-07-30T10:22:32.995Z,2252
2018-07-30T10:23:47.638Z,2248
2018-07-30T10:25:02.603Z,2244
2018-07-30T10:26:16.820Z,2232
2018-07-30T10:27:31.259Z,2224
2018-07-30T10:28:46.029Z,2220
2018-07-30T10:30:00.513Z,2212
2018-07-30T10:31:15.000Z,2208
2018-07-30T10:32:29.886Z,2212
2018-07-30T10:33:44.881Z,2212
2018-07-30T10:35:00.122Z,2192
2018-07-30T10:36:14.379Z,2172
2018-07-30T10:37:28.693Z,2172
2018-07-30T10:38:43.084Z,2168
2018-07-30T10:39:57.832Z,2176
2018-07-30T10:41:12.298Z,2168
2018-07-30T10:42:27.146Z,2168
2018-07-30T10:43:41.785Z,2148
2018-07-30T10:44:55.753Z,2144
2018-07-30T10:46:10.539Z,2128
2018-07-30T10:47:25.669Z,2128
2018-07-30T10:48:40.424Z,2124
2018-07-30T10:49:55.065Z,2112
2018-07-30T10:51:09.263Z,2112
2018-07-30T10:52:23.860Z,2104
2018-07-30T10:53:39.144Z,2096
2018-07-30T10:54:53.953Z,2084
2018-07-30T10:56:07.971Z,2080
2018-07-30T10:57:21.719Z,2076
2018-07-30T10:58:36.629Z,2068
2018-07-30T10:59:51.471Z,2060
2018-07-30T11:01:06.869Z,2064
2018-07-30T11:02:21.907Z,2076
2018-07-30T11:03:36.138Z,2080
2018-07-30T11:04:50.592Z,2080
2018-07-30T11:06:04.931Z,2076
2018-07-30T11:07:19.900Z,2072
2018-07-30T11:08:34.755Z,2068
2018-07-30T11:09:49.587Z,2068
2018-07-30T11:11:04.024Z,2052
2018-07-30T11:12:18.551Z,2040
2018-07-30T11:13:33.222Z,2032
2018-07-30T11:14:47.645Z,2036
2018-07-30T11:16:02.008Z,2032
2018-07-30T11:17:16.521Z,2032
2018-07-30T11:18:31.530Z,2032
2018-07-30T11:19:46.236Z,2032
2018-07-30T11:21:01.409Z,2036
2018-07-30T11:22:16.083Z,2040
2018-07-30T11:23:30.661Z,2044
2018-07-30T11:24:45.597Z,2056
2018-07-30T11:25:59.945Z,2052
2018-07-30T11:27:15.020Z,2108
2018-07-30T11:28:30.264Z,2256
2018-07-30T11:29:44.796Z,2312
2018-07-30T11:30:59.777Z,2340
2018-07-30T11:32:14.283Z,2344
2018-07-30T11:33:29.196Z,2304
2018-07-30T11:34:43.825Z,2388
2018-07-30T11:35:58.288Z,2576
2018-07-30T11:37:13.287Z,2640
2018-07-30T11:38:28.202Z,2608
2018-07-30T11:39:41.642Z,2684
2018-07-30T11:40:55.585Z,2780
2018-07-30T11:42:10.652Z,3056
2018-07-30T11:43:25.171Z,3104
2018-07-30T11:44:39.757Z,3044
2018-07-30T11:45:54.229Z,2860
2018-07-30T11:47:08.731Z,2796
2018-07-30T11:48:23.358Z,2864
2018-07-30T11:49:39.024Z,2992
2018-07-30T11:50:53.498Z,3216
2018-07-30T11:52:08.239Z,3128
2018-07-30T11:53:23.038Z,3540
2018-07-30T11:54:37.390Z,3808
2018-07-30T11:55:52.462Z,4004
2018-07-30T11:57:06.947Z,4008
2018-07-30T11:58:21.850Z,3992
2018-07-30T11:59:36.704Z,3988
2018-07-30T12:00:51.190Z,3696
2018-07-30T12:02:06.335Z,3448
2018-07-30T12:03:20.812Z,3384
2018-07-30T12:04:35.388Z,3404
2018-07-30T12:05:50.132Z,3484
2018-07-30T12:07:04.375Z,3388
2018-07-30T12:08:18.942Z,3412
2018-07-30T12:09:32.957Z,3500
2018-07-30T12:10:47.270Z,3480
2018-07-30T12:12:02.077Z,3572
2018-07-30T12:13:17.063Z,3628
2018-07-30T12:14:32.205Z,3828
2018-07-30T12:15:47.185Z,3936
2018-07-30T12:17:01.840Z,3872
2018-07-30T12:18:16.691Z,3696
2018-07-30T12:19:30.973Z,3520
2018-07-30T12:20:45.464Z,3312
2018-07-30T12:22:00.437Z,3216
2018-07-30T12:23:14.924Z,3220
2018-07-30T12:24:29.770Z,3260
2018-07-30T12:25:44.269Z,3172
2018-07-30T12:26:59.189Z,3116
2018-07-30T12:28:13.259Z,2928
2018-07-30T12:29:27.271Z,2868
2018-07-30T12:30:42.148Z,3056
2018-07-30T12:31:56.481Z,3192
2018-07-30T12:33:11.473Z,3208
2018-07-30T12:34:25.778Z,3260
2018-07-30T12:35:40.586Z,3264
2018-07-30T12:36:55.327Z,3444
2018-07-30T12:38:10.067Z,3348
2018-07-30T12:39:24.139Z,3216
2018-07-30T12:40:38.720Z,3072
2018-07-30T12:41:53.585Z,2936
2018-07-30T12:43:07.972Z,2848
2018-07-30T12:44:22.965Z,2768
2018-07-30T12:45:37.360Z,2724
2018-07-30T12:46:52.164Z,2696
2018-07-30T12:48:06.590Z,2664
2018-07-30T12:49:21.272Z,2692
2018-07-30T12:50:36.919Z,2648
2018-07-30T12:51:51.805Z,2600
2018-07-30T12:53:06.709Z,2556
2018-07-30T12:54:21.515Z,2540
2018-07-30T12:55:36.062Z,2524
2018-07-30T12:56:49.834Z,2436
2018-07-30T12:58:04.915Z,2424
2018-07-30T12:59:19.798Z,2520
2018-07-30T13:00:34.566Z,2496
2018-07-30T13:01:49.364Z,2732
2018-07-30T13:03:04.357Z,2836
2018-07-30T13:04:19.587Z,3048
2018-07-30T13:05:34.084Z,3352
2018-07-30T13:06:49.067Z,3720
2018-07-30T13:08:03.567Z,3612
2018-07-30T13:09:17.801Z,3544
2018-07-30T13:10:33.040Z,3412
2018-07-30T13:11:47.761Z,3156
2018-07-30T13:13:02.485Z,3156
2018-07-30T13:14:16.996Z,3216
2018-07-30T13:15:31.072Z,3120
2018-07-30T13:16:45.558Z,2788
2018-07-30T13:18:00.540Z,2872
2018-07-30T13:19:14.522Z,2864
2018-07-30T13:20:29.004Z,2912
2018-07-30T13:21:44.227Z,3012
2018-07-30T13:22:58.777Z,3060
2018-07-30T13:24:13.605Z,3060
2018-07-30T13:25:28.547Z,3188
2018-07-30T13:26:44.351Z,3244
2018-07-30T13:27:58.735Z,3392
2018-07-30T13:29:14.102Z,3340
2018-07-30T13:30:28.717Z,3156
2018-07-30T13:31:43.471Z,2948
2018-07-30T13:32:58.619Z,2804
2018-07-30T13:34:12.883Z,2788
2018-07-30T13:35:27.726Z,2740
2018-07-30T13:36:42.660Z,2640
2018-07-30T13:37:57.472Z,2528
2018-07-30T13:39:11.939Z,2508
2018-07-30T13:40:26.679Z,2592
2018-07-30T13:41:41.337Z,2780
2018-07-30T13:42:55.852Z,2924
2018-07-30T13:44:10.613Z,3076
2018-07-30T13:45:25.680Z,3296
2018-07-30T13:46:40.115Z,3540
2018-07-30T13:47:54.959Z,3692
2018-07-30T13:49:09.392Z,3772
2018-07-30T13:50:23.373Z,3864
2018-07-30T13:51:37.888Z,3852
2018-07-30T13:52:51.948Z,3948
2018-07-30T13:54:06.060Z,3984
2018-07-30T13:55:21.529Z,3956
2018-07-30T13:56:36.024Z,4020
2018-07-30T13:57:49.982Z,3956
2018-07-30T13:59:04.229Z,3748
2018-07-30T14:00:19.301Z,3548
2018-07-30T14:01:33.662Z,3520
2018-07-30T14:02:48.021Z,3308
2018-07-30T14:04:01.980Z,3484
2018-07-30T14:05:15.858Z,3648
2018-07-30T14:06:31.760Z,3980
2018-07-30T14:07:46.277Z,4128
2018-07-30T14:09:01.036Z,3948
2018-07-30T14:10:15.374Z,3760
2018-07-30T14:11:29.950Z,3776
2018-07-30T14:12:44.982Z,3712
2018-07-30T14:13:59.016Z,3560
2018-07-30T14:15:13.783Z,3424
2018-07-30T14:16:28.393Z,3592
2018-07-30T14:17:43.086Z,3480
2018-07-30T14:18:57.928Z,3460
2018-07-30T14:20:12.565Z,3384
2018-07-30T14:21:27.231Z,3368
2018-07-30T14:22:42.151Z,3268
2018-07-30T14:23:56.894Z,3316
2018-07-30T14:25:11.827Z,3212
2018-07-30T14:26:26.342Z,3268
2018-07-30T14:27:40.662Z,3308
2018-07-30T14:28:54.981Z,3440
2018-07-30T14:30:09.935Z,3696
2018-07-30T14:31:24.294Z,3664
2018-07-30T14:32:38.816Z,3620
2018-07-30T14:33:53.905Z,3616
2018-07-30T14:35:08.595Z,3524
2018-07-30T14:36:23.080Z,3436
2018-07-30T14:37:38.277Z,3544
2018-07-30T14:38:52.932Z,3676
2018-07-30T14:40:07.432Z,3768
2018-07-30T14:41:21.677Z,3896
2018-07-30T14:42:36.780Z,3932
2018-07-30T14:43:51.467Z,3880
2018-07-30T14:45:05.743Z,3812
2018-07-30T14:46:20.081Z,3756
2018-07-30T14:47:34.853Z,3712
2018-07-30T14:48:49.450Z,3768
2018-07-30T14:50:04.426Z,3784
2018-07-30T14:51:19.305Z,3824
2018-07-30T14:52:33.312Z,3772
2018-07-30T14:53:48.412Z,3640
2018-07-30T14:55:03.387Z,3588
2018-07-30T14:56:18.469Z,3608
2018-07-30T14:57:32.877Z,3616
2018-07-30T14:58:47.537Z,3664
2018-07-30T15:00:02.442Z,3676
2018-07-30T15:01:17.026Z,3580
2018-07-30T15:02:32.076Z,3536
2018-07-30T15:03:46.796Z,3396
2018-07-30T15:05:01.438Z,3332
2018-07-30T15:06:16.596Z,3336
2018-07-30T15:07:31.135Z,3476
2018-07-30T15:08:45.959Z,3580
2018-07-30T15:10:00.613Z,3720
2018-07-30T15:11:14.861Z,3844
2018-07-30T15:12:29.110Z,3788
2018-07-30T15:13:44.238Z,3676
2018-07-30T15:14:59.527Z,3516
2018-07-30T15:16:14.052Z,3356
2018-07-30T15:17:29.201Z,3324
2018-07-30T15:18:43.724Z,3416
2018-07-30T15:19:58.143Z,3412
2018-07-30T15:21:12.681Z,3264
2018-07-30T15:22:27.475Z,3084
2018-07-30T15:23:42.036Z,3060
2018-07-30T15:24:56.811Z,3040
2018-07-30T15:26:11.823Z,3044
2018-07-30T15:27:26.675Z,3252
2018-07-30T15:28:41.450Z,3264
2018-07-30T15:29:56.586Z,3144
2018-07-30T15:31:11.106Z,2968
2018-07-30T15:32:25.903Z,2884
2018-07-30T15:33:40.648Z,2928
2018-07-30T15:34:55.866Z,2952
2018-07-30T15:36:10.391Z,2984
2018-07-30T15:37:24.579Z,2944
2018-07-30T15:38:39.330Z,2936
2018-07-30T15:39:54.088Z,2948
2018-07-30T15:41:08.329Z,2952
2018-07-30T15:42:22.991Z,2960
2018-07-30T15:43:38.018Z,2976
2018-07-30T15:44:53.042Z,2916
2018-07-30T15:46:07.555Z,2792
2018-07-30T15:47:22.335Z,2656
2018-07-30T15:48:37.092Z,2536
2018-07-30T15:49:51.956Z,2448
2018-07-30T15:51:06.253Z,2404
2018-07-30T15:52:21.027Z,2336
2018-07-30T15:53:35.563Z,2276
2018-07-30T15:54:50.045Z,2232
2018-07-30T15:56:05.370Z,2180
2018-07-30T15:57:19.339Z,2132
2018-07-30T15:58:34.100Z,2048
2018-07-30T15:59:48.853Z,2004
2018-07-30T16:01:03.695Z,1964
2018-07-30T16:02:17.942Z,1940
2018-07-30T16:03:32.980Z,1904
2018-07-30T16:04:47.745Z,1872
2018-07-30T16:06:03.027Z,1848
2018-07-30T16:07:17.264Z,1820
2018-07-30T16:08:31.807Z,1804
2018-07-30T16:09:46.278Z,1812
2018-07-30T16:11:01.438Z,1836
2018-07-30T16:12:16.362Z,1904
2018-07-30T16:13:30.927Z,1944
2018-07-30T16:14:45.643Z,1980
2018-07-30T16:16:00.221Z,2032
2018-07-30T16:17:14.758Z,2096
2018-07-30T16:18:29.257Z,2164
2018-07-30T16:19:43.779Z,2188
2018-07-30T16:20:58.887Z,2192
2018-07-30T16:22:12.923Z,2172
2018-07-30T16:23:28.644Z,2188
2018-07-30T16:24:43.502Z,2228
2018-07-30T16:25:57.940Z,2328
2018-07-30T16:27:14.226Z,2536
2018-07-30T16:28:30.894Z,2664
2018-07-30T16:29:46.819Z,2748
2018-07-30T16:31:02.371Z,2848
2018-07-30T16:32:16.934Z,2932
2018-07-30T16:33:31.596Z,3048
2018-07-30T16:34:46.124Z,3152
2018-07-30T16:36:00.926Z,3328
2018-07-30T16:37:15.556Z,3528
2018-07-30T16:38:30.133Z,3684
2018-07-30T16:39:44.899Z,3716
2018-07-30T16:40:59.872Z,3660
2018-07-30T16:42:15.224Z,3488
2018-07-30T16:43:30.124Z,3328
2018-07-30T16:44:44.583Z,3168
2018-07-30T16:45:59.565Z,3016
2018-07-30T17:11:46.824Z,2000
2018-07-30T17:13:02.038Z,1936
2018-07-30T17:14:16.568Z,1872
2018-07-30T17:15:30.858Z,1812
2018-07-30T17:16:45.705Z,1752
2018-07-30T17:18:00.422Z,1700
2018-07-30T17:19:14.916Z,1636
2018-07-30T17:20:29.813Z,1592
2018-07-30T17:21:44.645Z,1580
2018-07-30T17:22:59.498Z,1556
2018-07-30T17:24:14.154Z,1528
2018-07-30T17:25:29.169Z,1504
2018-07-30T17:26:44.837Z,1480